Kirton in Lindsey, United Kingdom
Current Conditions -  °F | °C
As of 5:20 PM on Friday 19 Dec 2014 (Local Time) from EGNJ Reporting Station
Broken Clouds Broken Clouds  
Wind Chill: 36°   Ceiling: 3800
Heat Index: 45°   Visibility: 6mi
Dew Point: 36°   Wind: 21mph
Humidity: 71%   Direction: 240°WSW
Pressure: 29.91"   Gusts: NA
Location:  53.48°N, 0.6°W
Report Text: EGNJ 191720Z 24018KT 9999 SCT030 BKN038 07/02 Q1013
Loading
Personal Weather Stations






























Interactive Weather Map New forecast layout! Learn more

10-Day Weather Forecast

Advertisements
Track Severe Weather on mobile